createdAt,value
2019-03-29T00:05:00.534Z,16.48
2019-03-29T00:10:06.601Z,16.87
2019-03-29T00:15:11.656Z,17.00
2019-03-29T00:20:16.689Z,16.02
2019-03-29T00:25:21.652Z,16.25
2019-03-29T00:30:26.394Z,16.35
2019-03-29T00:35:31.120Z,17.10
2019-03-29T00:40:36.189Z,16.40
2019-03-29T00:45:40.930Z,17.67
2019-03-29T00:50:45.982Z,19.40
2019-03-29T00:55:50.719Z,19.85
2019-03-29T01:00:55.411Z,15.40
2019-03-29T01:06:00.281Z,15.50
2019-03-29T01:11:05.560Z,14.53
2019-03-29T01:16:10.304Z,13.80
2019-03-29T01:21:15.137Z,15.53
2019-03-29T01:26:20.093Z,13.85
2019-03-29T01:31:25.143Z,13.75
2019-03-29T01:36:29.886Z,13.62
2019-03-29T01:41:34.602Z,14.20
2019-03-29T01:46:39.654Z,13.80
2019-03-29T01:51:44.749Z,11.35
2019-03-29T01:56:49.468Z,12.45
2019-03-29T02:01:54.950Z,11.08
2019-03-29T02:06:59.851Z,10.00
2019-03-29T02:12:05.231Z,10.20
2019-03-29T02:17:10.050Z,11.10
2019-03-29T02:22:15.947Z,9.33
2019-03-29T02:27:20.763Z,7.78
2019-03-29T02:32:25.775Z,7.90
2019-03-29T02:37:30.787Z,7.47
2019-03-29T02:42:35.813Z,7.35
2019-03-29T02:47:40.895Z,6.72
2019-03-29T02:52:45.936Z,7.15
2019-03-29T02:57:50.991Z,6.97
2019-03-29T03:02:55.723Z,6.95
2019-03-29T03:08:00.545Z,7.20
2019-03-29T03:13:05.541Z,7.00
2019-03-29T03:18:10.339Z,7.03
2019-03-29T03:23:15.319Z,6.50
2019-03-29T03:28:20.360Z,6.47
2019-03-29T03:33:25.188Z,7.12
2019-03-29T03:38:29.925Z,6.40
2019-03-29T03:43:34.896Z,7.05
2019-03-29T03:48:40.862Z,6.72
2019-03-29T03:53:46.919Z,6.30
2019-03-29T03:58:52.805Z,7.33
2019-03-29T04:03:57.885Z,7.30
2019-03-29T04:09:02.878Z,6.58
2019-03-29T04:14:07.874Z,7.25
2019-03-29T04:19:12.771Z,6.97
2019-03-29T04:24:17.741Z,8.05
2019-03-29T04:29:22.790Z,8.18
2019-03-29T04:34:27.610Z,9.33
2019-03-29T04:39:32.585Z,8.13
2019-03-29T04:44:37.331Z,20.02
2019-03-29T04:49:42.078Z,9.23
2019-03-29T04:54:46.808Z,7.95
2019-03-29T04:59:51.526Z,8.25
2019-03-29T05:04:56.273Z,8.70
2019-03-29T05:10:01.035Z,7.72
2019-03-29T05:15:06.507Z,8.10
2019-03-29T05:20:11.441Z,7.95
2019-03-29T05:25:16.488Z,7.58
2019-03-29T05:30:21.543Z,37.08
2019-03-29T05:35:26.934Z,23.73
2019-03-29T05:40:35.121Z,13.00
2019-03-29T05:45:38.225Z,12.10
2019-03-29T05:50:43.067Z,7.83
2019-03-29T05:55:48.390Z,8.03
2019-03-29T06:00:54.370Z,8.13
2019-03-29T06:05:59.649Z,9.35
2019-03-29T06:11:04.698Z,9.98
2019-03-29T06:16:10.362Z,10.63
2019-03-29T06:21:15.389Z,8.30
2019-03-29T06:26:20.331Z,8.13
2019-03-29T06:31:25.178Z,7.78
2019-03-29T06:36:32.094Z,9.23
2019-03-29T06:41:36.838Z,6.35
2019-03-29T06:46:41.885Z,8.90
2019-03-29T06:51:46.613Z,8.90
2019-03-29T06:56:51.374Z,8.05
2019-03-29T07:01:56.290Z,9.25
2019-03-29T07:07:01.150Z,9.30
2019-03-29T07:12:06.209Z,8.85
2019-03-29T07:17:12.488Z,9.35
2019-03-29T07:22:17.230Z,8.60
2019-03-29T07:27:21.971Z,9.15
2019-03-29T07:32:26.715Z,9.65
2019-03-29T07:37:31.747Z,8.95
2019-03-29T07:42:38.655Z,9.60
2019-03-29T07:47:43.402Z,9.55
2019-03-29T07:52:48.142Z,9.73
2019-03-29T07:57:52.882Z,11.50
2019-03-29T08:02:57.624Z,10.70
2019-03-29T08:08:02.673Z,10.60
2019-03-29T08:13:07.420Z,9.65
2019-03-29T08:18:12.780Z,8.78
2019-03-29T08:23:17.820Z,9.58
2019-03-29T08:28:22.670Z,9.50
2019-03-29T08:33:27.612Z,9.28
2019-03-29T08:38:32.430Z,8.65
2019-03-29T08:43:37.285Z,9.53
2019-03-29T08:48:42.452Z,8.10
2019-03-29T08:53:47.202Z,9.60
2019-03-29T08:58:52.244Z,8.80
2019-03-29T09:04:05.154Z,8.40
2019-03-29T09:09:05.286Z,8.68
2019-03-29T09:14:10.463Z,8.65
2019-03-29T09:19:15.820Z,9.65
2019-03-29T09:24:22.369Z,9.20
2019-03-29T09:29:27.026Z,9.13
2019-03-29T09:34:31.891Z,9.03
2019-03-29T09:39:36.609Z,8.48
2019-03-29T09:44:42.908Z,8.90
2019-03-29T09:49:47.963Z,9.05
2019-03-29T09:54:54.180Z,10.30
2019-03-29T09:59:58.979Z,9.20
2019-03-29T10:05:04.029Z,9.33
2019-03-29T10:10:09.169Z,9.23
2019-03-29T10:15:14.127Z,9.93
2019-03-29T10:20:20.404Z,10.85
2019-03-29T10:25:25.457Z,9.98
2019-03-29T10:30:38.490Z,8.93
2019-03-29T10:35:52.141Z,9.73
2019-03-29T10:40:49.895Z,8.48
2019-03-29T10:45:55.176Z,9.50
2019-03-29T10:51:00.223Z,8.05
2019-03-29T10:56:05.252Z,14.03
2019-03-29T11:01:10.091Z,8.75
2019-03-29T11:06:15.063Z,7.58
2019-03-29T11:11:19.819Z,5.35
2019-03-29T11:16:25.777Z,5.75
2019-03-29T11:21:31.133Z,5.28
2019-03-29T11:26:36.182Z,5.67
2019-03-29T11:31:41.231Z,5.45
2019-03-29T11:36:45.974Z,6.95
2019-03-29T11:41:50.717Z,5.75
2019-03-29T11:46:55.764Z,5.67
2019-03-29T11:52:01.126Z,5.97
2019-03-29T11:57:06.150Z,5.37
2019-03-29T12:02:11.220Z,5.15
2019-03-29T12:07:16.250Z,5.92
2019-03-29T12:12:21.317Z,5.17
2019-03-29T12:17:26.052Z,5.53
2019-03-29T12:22:30.883Z,5.83
2019-03-29T12:27:35.855Z,4.30
2019-03-29T12:32:40.903Z,5.03
2019-03-29T12:37:46.240Z,4.08
2019-03-29T12:42:51.312Z,3.85
2019-03-29T12:47:56.040Z,4.20
2019-03-29T12:53:00.789Z,4.97
2019-03-29T12:58:05.680Z,3.55
2019-03-29T13:03:10.454Z,2.92
2019-03-29T13:08:16.550Z,3.30
2019-03-29T13:13:21.294Z,3.52
2019-03-29T13:18:26.343Z,4.75
2019-03-29T13:23:32.007Z,3.35
2019-03-29T13:28:36.729Z,2.62
2019-03-29T13:33:42.720Z,2.25
2019-03-29T13:38:47.465Z,3.33
2019-03-29T13:43:52.183Z,4.25
2019-03-29T13:48:57.252Z,3.00
2019-03-29T13:54:02.283Z,2.85
2019-03-29T13:59:07.332Z,4.42
2019-03-29T14:04:12.070Z,5.60
2019-03-29T14:09:16.836Z,4.50
2019-03-29T14:14:21.582Z,3.27
2019-03-29T14:19:26.325Z,2.62
2019-03-29T14:24:31.448Z,4.58
2019-03-29T14:29:36.191Z,18.45
2019-03-29T14:34:41.043Z,3.20
2019-03-29T14:39:45.877Z,2.47
2019-03-29T14:44:52.689Z,2.80
2019-03-29T14:49:57.227Z,2.65
2019-03-29T14:55:03.815Z,2.45
2019-03-29T15:00:11.627Z,2.70
2019-03-29T15:05:17.989Z,2.90
2019-03-29T15:10:27.549Z,3.17
2019-03-29T15:15:32.612Z,4.10
2019-03-29T15:20:37.338Z,2.20
2019-03-29T15:25:43.022Z,2.70
2019-03-29T15:30:48.070Z,3.00
2019-03-29T15:35:55.557Z,2.55
2019-03-29T15:41:01.851Z,2.58
2019-03-29T15:46:06.808Z,2.47
2019-03-29T15:51:11.622Z,2.72
2019-03-29T15:56:18.535Z,3.40
2019-03-29T16:01:23.866Z,2.20
2019-03-29T16:06:28.635Z,2.87
2019-03-29T16:11:33.685Z,3.37
2019-03-29T16:16:38.732Z,2.65
2019-03-29T16:21:43.550Z,3.35
2019-03-29T16:26:48.532Z,4.22
2019-03-29T16:31:53.249Z,3.10
2019-03-29T16:36:57.982Z,3.58
2019-03-29T16:42:03.059Z,5.47
2019-03-29T16:47:08.106Z,3.50
2019-03-29T16:52:13.036Z,6.47
2019-03-29T16:57:17.899Z,5.17
2019-03-29T17:02:22.619Z,4.25
2019-03-29T17:07:27.689Z,3.50
2019-03-29T17:12:32.431Z,4.75
2019-03-29T17:17:37.487Z,4.45
2019-03-29T17:22:43.362Z,3.62
2019-03-29T17:27:52.007Z,5.87
2019-03-29T17:32:55.392Z,3.60
2019-03-29T17:38:00.135Z,3.77
2019-03-29T17:43:05.491Z,5.15
2019-03-29T17:48:11.540Z,4.45
2019-03-29T17:53:16.513Z,6.10
2019-03-29T17:58:21.560Z,4.92
2019-03-29T18:03:26.614Z,6.37
2019-03-29T18:08:31.427Z,5.60
2019-03-29T18:13:36.402Z,5.53
2019-03-29T18:18:41.231Z,6.67
2019-03-29T18:23:46.490Z,6.37
2019-03-29T18:28:51.548Z,6.50
2019-03-29T18:33:56.303Z,8.83
2019-03-29T18:39:01.339Z,10.13
2019-03-29T18:44:07.312Z,9.40
2019-03-29T18:49:12.360Z,9.88
2019-03-29T18:54:17.184Z,9.48
2019-03-29T18:59:22.154Z,9.85
2019-03-29T19:04:27.200Z,10.55
2019-03-29T19:09:32.251Z,9.65
2019-03-29T19:14:36.997Z,9.85
2019-03-29T19:19:41.816Z,11.20
2019-03-29T19:24:47.132Z,10.95
2019-03-29T19:29:52.140Z,11.08
2019-03-29T19:34:56.882Z,12.20
2019-03-29T19:40:01.932Z,12.37
2019-03-29T19:45:10.361Z,11.97
2019-03-29T19:50:16.024Z,12.70
2019-03-29T19:55:22.001Z,12.23
2019-03-29T20:00:38.120Z,11.08
2019-03-29T20:05:43.153Z,12.58
2019-03-29T20:10:48.508Z,13.20
2019-03-29T20:15:53.558Z,13.80
2019-03-29T20:20:58.607Z,12.73
2019-03-29T20:26:03.352Z,13.35
2019-03-29T20:31:08.397Z,13.90
2019-03-29T20:36:13.144Z,15.05
2019-03-29T20:41:18.188Z,13.58
2019-03-29T20:46:22.906Z,16.12
2019-03-29T20:51:27.979Z,16.57
2019-03-29T20:56:33.036Z,16.27
2019-03-29T21:01:37.776Z,15.85
2019-03-29T21:06:42.514Z,16.80
2019-03-29T21:11:47.539Z,16.73
2019-03-29T21:16:52.303Z,16.77
2019-03-29T21:21:57.363Z,17.67
2019-03-29T21:27:02.096Z,17.55
2019-03-29T21:32:06.914Z,18.87
2019-03-29T21:37:11.889Z,17.62
2019-03-29T21:42:16.712Z,18.37
2019-03-29T21:47:21.679Z,17.32
2019-03-29T21:52:26.498Z,18.23
2019-03-29T21:57:31.468Z,14.13
2019-03-29T22:02:36.521Z,14.55
2019-03-29T22:07:41.566Z,12.58
2019-03-29T22:12:46.309Z,12.88
2019-03-29T22:17:51.136Z,12.25
2019-03-29T22:22:56.099Z,11.38
2019-03-29T22:28:00.846Z,12.00
2019-03-29T22:33:05.891Z,11.22
2019-03-29T22:38:10.941Z,12.37
2019-03-29T22:43:15.609Z,10.15
2019-03-29T22:48:20.425Z,11.38
2019-03-29T22:53:25.320Z,10.23
2019-03-29T22:58:30.216Z,10.93
2019-03-29T23:03:34.956Z,11.18
2019-03-29T23:08:40.703Z,10.20
2019-03-29T23:13:46.595Z,11.48
2019-03-29T23:19:05.511Z,11.30
2019-03-29T23:23:57.721Z,11.15
2019-03-29T23:29:02.643Z,11.33
2019-03-29T23:34:07.406Z,11.60
2019-03-29T23:39:12.455Z,12.07
2019-03-29T23:44:17.504Z,11.10
2019-03-29T23:49:22.533Z,12.85
2019-03-29T23:54:27.203Z,12.13
2019-03-29T23:59:31.918Z,12.30
